createdAt,value
2022-08-27T00:01:59.732Z,16.70
2022-08-27T00:04:28.513Z,14.20
2022-08-27T00:06:57.446Z,10.60
2022-08-27T00:09:27.338Z,13.23
2022-08-27T00:11:55.885Z,14.68
2022-08-27T00:14:26.052Z,19.63
2022-08-27T00:19:22.460Z,13.20
2022-08-27T00:21:50.724Z,15.85
2022-08-27T00:24:18.721Z,14.68
2022-08-27T00:26:46.933Z,12.90
2022-08-27T00:29:15.070Z,15.40
2022-08-27T00:31:44.666Z,12.35
2022-08-27T00:34:13.331Z,15.60
2022-08-27T00:36:41.700Z,14.68
2022-08-27T00:39:10.155Z,14.90
2022-08-27T00:41:39.205Z,10.68
2022-08-27T00:44:09.472Z,12.95
2022-08-27T00:46:42.204Z,17.83
2022-08-27T00:49:18.279Z,14.40
2022-08-27T00:51:53.067Z,11.77
2022-08-27T00:54:23.029Z,14.68
2022-08-27T00:56:52.060Z,16.40
2022-08-27T00:59:23.896Z,16.48
2022-08-27T01:02:15.208Z,13.77
2022-08-27T01:04:47.828Z,17.90
2022-08-27T01:07:15.953Z,14.85
2022-08-27T01:09:45.271Z,13.68
2022-08-27T01:12:13.482Z,15.70
2022-08-27T01:14:43.043Z,12.52
2022-08-27T01:17:12.340Z,17.52
2022-08-27T01:19:45.951Z,20.43
2022-08-27T01:22:23.472Z,15.57
2022-08-27T01:24:56.144Z,13.98
2022-08-27T01:27:27.313Z,17.85
2022-08-27T01:29:55.971Z,17.05
2022-08-27T01:32:28.034Z,18.92
2022-08-27T01:34:57.507Z,16.67
2022-08-27T01:37:27.726Z,18.80
2022-08-27T01:42:32.228Z,19.15
2022-08-27T01:45:05.624Z,19.33
2022-08-27T01:47:34.759Z,21.13
2022-08-27T01:50:04.182Z,15.90
2022-08-27T01:52:32.600Z,16.83
2022-08-27T01:55:02.253Z,15.48
2022-08-27T01:57:31.070Z,16.60
2022-08-27T01:59:59.365Z,16.08
2022-08-27T02:02:27.517Z,16.00
2022-08-27T02:04:55.723Z,16.77
2022-08-27T02:07:23.850Z,15.65
2022-08-27T02:09:52.293Z,16.60
2022-08-27T02:12:21.794Z,17.55
2022-08-27T02:14:49.929Z,17.08
2022-08-27T02:17:18.049Z,17.17
2022-08-27T02:19:46.575Z,16.95
2022-08-27T02:22:15.097Z,12.85
2022-08-27T02:24:43.212Z,13.38
2022-08-27T02:27:11.683Z,12.77
2022-08-27T02:29:41.207Z,17.10
2022-08-27T02:32:22.406Z,15.23
2022-08-27T02:34:57.436Z,13.10
2022-08-27T02:37:25.674Z,17.33
2022-08-27T02:39:53.744Z,13.93
2022-08-27T02:42:21.871Z,19.40
2022-08-27T02:44:51.405Z,17.50
2022-08-27T02:47:19.661Z,17.45
2022-08-27T02:49:48.008Z,10.73
2022-08-27T02:52:16.960Z,13.73
2022-08-27T02:54:54.117Z,11.85
2022-08-27T02:57:22.319Z,15.27
2022-08-27T02:59:52.136Z,10.30
2022-08-27T03:02:21.226Z,10.15
2022-08-27T03:04:50.206Z,9.82
2022-08-27T03:07:19.536Z,14.15
2022-08-27T03:09:47.879Z,11.40
2022-08-27T03:12:16.365Z,15.15
2022-08-27T03:14:44.733Z,16.25
2022-08-27T03:17:31.690Z,10.60
2022-08-27T03:20:01.644Z,15.55
2022-08-27T03:22:29.786Z,15.02
2022-08-27T03:24:57.818Z,16.67
2022-08-27T03:27:25.959Z,16.92
2022-08-27T03:29:54.474Z,14.07
2022-08-27T03:32:24.191Z,16.80
2022-08-27T03:34:52.310Z,14.88
2022-08-27T03:37:20.328Z,15.32
2022-08-27T03:39:48.360Z,16.55
2022-08-27T03:42:16.924Z,11.88
2022-08-27T03:44:45.115Z,14.00
2022-08-27T03:47:13.171Z,14.23
2022-08-27T03:49:42.798Z,17.80
2022-08-27T03:52:11.123Z,15.60
2022-08-27T03:54:39.609Z,17.48
2022-08-27T03:57:08.382Z,17.58
2022-08-27T03:59:36.468Z,16.13
2022-08-27T04:02:05.035Z,20.58
2022-08-27T04:04:33.145Z,20.73
2022-08-27T04:07:02.676Z,13.13
2022-08-27T04:09:30.713Z,14.38
2022-08-27T04:11:58.908Z,13.68
2022-08-27T04:14:27.623Z,18.70
2022-08-27T04:16:56.611Z,14.48
2022-08-27T04:19:28.010Z,15.05
2022-08-27T04:22:02.645Z,13.55
2022-08-27T04:24:32.817Z,17.13
2022-08-27T04:27:01.833Z,14.70
2022-08-27T04:29:30.349Z,10.10
2022-08-27T04:31:59.224Z,11.43
2022-08-27T04:34:27.913Z,16.45
2022-08-27T04:36:57.827Z,10.75
2022-08-27T04:39:28.403Z,12.15
2022-08-27T04:41:59.418Z,10.02
2022-08-27T04:44:29.389Z,12.13
2022-08-27T04:46:59.383Z,8.70
2022-08-27T04:49:28.518Z,7.43
2022-08-27T04:51:56.740Z,8.15
2022-08-27T04:54:32.347Z,12.95
2022-08-27T04:57:03.265Z,12.18
2022-08-27T05:01:59.941Z,8.73
2022-08-27T05:04:31.553Z,10.77
2022-08-27T05:07:00.665Z,10.20
2022-08-27T05:09:28.707Z,8.48
2022-08-27T05:11:57.161Z,10.07
2022-08-27T05:14:30.082Z,14.10
2022-08-27T05:16:59.030Z,8.80
2022-08-27T05:19:27.047Z,14.15
2022-08-27T05:21:55.495Z,9.68
2022-08-27T05:24:24.039Z,12.93
2022-08-27T05:26:52.301Z,10.88
2022-08-27T05:29:20.576Z,11.48
2022-08-27T05:31:49.966Z,8.48
2022-08-27T05:34:21.952Z,11.07
2022-08-27T05:36:54.134Z,7.75
2022-08-27T05:39:22.180Z,10.60
2022-08-27T05:41:52.440Z,17.73
2022-08-27T05:47:10.212Z,11.30
2022-08-27T05:49:38.909Z,8.25
2022-08-27T05:52:10.753Z,16.35
2022-08-27T05:54:39.830Z,10.32
2022-08-27T05:57:08.285Z,10.13
2022-08-27T05:59:54.176Z,12.85
2022-08-27T06:02:24.337Z,11.30
2022-08-27T06:07:21.714Z,9.95
2022-08-27T06:09:49.940Z,18.70
2022-08-27T06:12:18.223Z,10.98
2022-08-27T06:14:46.217Z,11.30
2022-08-27T06:17:14.363Z,7.60
2022-08-27T06:19:43.883Z,14.18
2022-08-27T06:22:12.059Z,8.10
2022-08-27T06:24:41.955Z,10.35
2022-08-27T06:27:11.735Z,9.25
2022-08-27T06:29:40.164Z,11.80
2022-08-27T06:32:09.239Z,10.40
2022-08-27T06:34:38.031Z,15.70
2022-08-27T06:37:07.843Z,9.52
2022-08-27T06:39:37.550Z,14.35
2022-08-27T06:42:06.402Z,13.95
2022-08-27T06:44:35.364Z,9.57
2022-08-27T06:47:04.693Z,12.85
2022-08-27T06:49:33.631Z,13.27
2022-08-27T06:52:01.834Z,18.20
2022-08-27T06:54:31.332Z,14.18
2022-08-27T06:57:00.203Z,13.25
2022-08-27T06:59:29.127Z,15.02
2022-08-27T07:01:57.290Z,8.73
2022-08-27T07:04:32.655Z,10.52
2022-08-27T07:07:02.282Z,11.38
2022-08-27T07:09:33.079Z,10.52
2022-08-27T07:12:01.672Z,10.18
2022-08-27T07:14:32.970Z,12.55
2022-08-27T07:17:04.199Z,13.00
2022-08-27T07:19:32.326Z,9.27
2022-08-27T07:22:00.328Z,10.13
2022-08-27T07:24:28.386Z,9.57
2022-08-27T07:26:58.919Z,14.18
2022-08-27T07:29:31.701Z,9.50
2022-08-27T07:32:00.171Z,10.43
2022-08-27T07:34:28.522Z,17.73
2022-08-27T07:36:56.714Z,13.55
2022-08-27T07:39:24.939Z,10.07
2022-08-27T07:42:10.229Z,9.20
2022-08-27T07:44:39.696Z,12.57
2022-08-27T07:47:08.805Z,12.27
2022-08-27T07:49:37.669Z,13.18
2022-08-27T07:52:06.694Z,14.38
2022-08-27T07:54:35.035Z,13.70
2022-08-27T07:57:03.106Z,12.80
2022-08-27T07:59:31.161Z,16.10
2022-08-27T08:02:00.918Z,15.70
2022-08-27T08:04:28.947Z,10.18
2022-08-27T08:06:57.673Z,9.45
2022-08-27T08:09:25.775Z,9.38
2022-08-27T08:11:55.055Z,11.85
2022-08-27T08:14:23.402Z,9.67
2022-08-27T08:16:51.747Z,11.20
2022-08-27T08:19:21.226Z,12.60
2022-08-27T08:21:49.262Z,14.63
2022-08-27T08:24:18.377Z,9.77
2022-08-27T08:26:46.585Z,12.55
2022-08-27T08:29:17.923Z,8.40
2022-08-27T08:31:49.881Z,7.78
2022-08-27T08:34:19.339Z,11.15
2022-08-27T08:36:54.049Z,6.75
2022-08-27T08:39:23.473Z,16.05
2022-08-27T08:41:53.627Z,11.80
2022-08-27T08:47:04.769Z,12.32
2022-08-27T08:49:48.197Z,14.80
2022-08-27T08:52:31.558Z,8.55
2022-08-27T08:55:09.864Z,7.47
2022-08-27T08:57:43.439Z,10.15
2022-08-27T09:00:14.832Z,12.73
2022-08-27T09:02:50.402Z,8.60
2022-08-27T09:05:19.063Z,11.15
2022-08-27T09:08:09.898Z,8.23
2022-08-27T09:10:49.795Z,8.13
2022-08-27T09:13:24.158Z,9.30
2022-08-27T09:15:56.640Z,9.55
2022-08-27T09:18:28.133Z,9.15
2022-08-27T09:21:07.444Z,8.27
2022-08-27T09:23:46.210Z,9.32
2022-08-27T09:26:28.276Z,11.88
2022-08-27T09:29:20.384Z,7.57
2022-08-27T09:31:55.778Z,12.35
2022-08-27T09:34:24.757Z,11.60
2022-08-27T09:37:00.578Z,9.70
2022-08-27T09:39:36.423Z,10.52
2022-08-27T09:42:06.018Z,16.23
2022-08-27T09:44:34.417Z,9.68
2022-08-27T09:47:04.919Z,10.23
2022-08-27T09:49:36.808Z,10.88
2022-08-27T09:52:05.337Z,15.18
2022-08-27T09:54:45.444Z,10.30
2022-08-27T09:57:28.841Z,9.57
2022-08-27T09:59:59.469Z,7.15
2022-08-27T10:02:28.156Z,12.05
2022-08-27T10:04:59.630Z,9.10
2022-08-27T10:07:36.676Z,8.10
2022-08-27T10:10:12.111Z,9.75
2022-08-27T10:12:51.831Z,8.10
2022-08-27T10:15:20.083Z,8.43
2022-08-27T10:18:01.299Z,8.80
2022-08-27T10:20:40.438Z,8.80
2022-08-27T10:23:19.420Z,12.70
2022-08-27T10:26:00.359Z,10.75
2022-08-27T10:28:46.586Z,9.90
2022-08-27T10:31:22.585Z,8.43
2022-08-27T10:34:04.534Z,7.95
2022-08-27T10:36:44.680Z,9.15
2022-08-27T10:39:26.485Z,7.47
2022-08-27T10:42:04.753Z,12.60
2022-08-27T10:44:47.372Z,9.10
2022-08-27T10:47:30.689Z,7.35
2022-08-27T10:50:06.578Z,13.13
2022-08-27T10:52:39.367Z,8.13
2022-08-27T10:55:15.485Z,10.60
2022-08-27T10:58:07.890Z,11.63
2022-08-27T11:00:43.128Z,10.85
2022-08-27T11:03:15.281Z,10.95
2022-08-27T11:05:47.096Z,8.27
2022-08-27T11:08:20.906Z,10.85
2022-08-27T11:10:52.882Z,10.55
2022-08-27T11:13:34.296Z,12.25
2022-08-27T11:16:07.333Z,8.65
2022-08-27T11:18:43.213Z,9.60
2022-08-27T11:21:15.862Z,9.27
2022-08-27T11:23:47.788Z,9.63
2022-08-27T11:26:16.427Z,9.48
2022-08-27T11:28:50.492Z,12.20
2022-08-27T11:31:24.016Z,9.90
2022-08-27T11:34:03.272Z,8.23
2022-08-27T11:37:06.776Z,10.85
2022-08-27T11:40:04.244Z,10.82
2022-08-27T11:42:39.178Z,9.65
2022-08-27T11:45:21.171Z,10.65
2022-08-27T11:47:55.510Z,7.70
2022-08-27T11:50:25.737Z,13.20
2022-08-27T11:55:31.378Z,9.65
2022-08-27T11:58:24.258Z,11.75
2022-08-27T12:00:54.888Z,8.25
2022-08-27T12:03:30.332Z,10.35
2022-08-27T12:06:26.665Z,12.00
2022-08-27T12:09:06.461Z,8.90
2022-08-27T12:11:45.492Z,7.75
2022-08-27T12:14:28.764Z,12.07
2022-08-27T12:17:05.228Z,7.38
2022-08-27T12:19:46.020Z,8.30
2022-08-27T12:22:30.094Z,9.40
2022-08-27T12:25:00.248Z,10.07
2022-08-27T12:27:34.475Z,10.80
2022-08-27T12:30:07.699Z,8.95
2022-08-27T12:32:44.375Z,8.88
2022-08-27T12:35:16.869Z,7.80
2022-08-27T12:37:49.016Z,7.93
2022-08-27T12:40:28.921Z,8.30
2022-08-27T12:43:07.888Z,5.13
2022-08-27T12:45:45.281Z,7.13
2022-08-27T12:48:18.733Z,8.18
2022-08-27T12:50:53.307Z,5.78
2022-08-27T12:53:32.297Z,10.95
2022-08-27T12:56:14.426Z,9.15
2022-08-27T12:58:54.374Z,5.22
2022-08-27T13:01:43.021Z,6.45
2022-08-27T13:04:21.885Z,7.55
2022-08-27T13:06:50.887Z,7.00
2022-08-27T13:09:29.371Z,8.32
2022-08-27T13:11:59.648Z,9.27
2022-08-27T13:14:29.805Z,5.40
2022-08-27T13:17:00.652Z,9.00
2022-08-27T13:19:33.754Z,8.95
2022-08-27T13:22:05.161Z,6.97
2022-08-27T13:24:35.422Z,5.88
2022-08-27T13:27:07.397Z,6.95
2022-08-27T13:29:36.315Z,6.57
2022-08-27T13:32:05.682Z,9.32
2022-08-27T13:34:38.256Z,6.63
2022-08-27T13:37:08.954Z,7.85
2022-08-27T13:39:39.149Z,9.52
2022-08-27T13:44:38.868Z,8.98
2022-08-27T13:47:09.267Z,5.80
2022-08-27T13:49:41.896Z,6.63
2022-08-27T13:52:24.165Z,6.50
2022-08-27T13:54:59.260Z,8.40
2022-08-27T13:57:30.798Z,5.57
2022-08-27T14:00:10.490Z,6.78
2022-08-27T14:02:38.734Z,7.20
2022-08-27T14:05:13.439Z,7.85
2022-08-27T14:07:47.502Z,9.05
2022-08-27T14:10:32.527Z,9.68
2022-08-27T14:13:03.885Z,9.60
2022-08-27T14:15:34.617Z,9.68
2022-08-27T14:18:04.904Z,7.82
2022-08-27T14:20:35.544Z,12.82
2022-08-27T14:23:04.665Z,8.15
2022-08-27T14:25:34.537Z,11.73
2022-08-27T14:28:02.789Z,6.63
2022-08-27T14:30:31.470Z,7.53
2022-08-27T14:33:00.516Z,8.95
2022-08-27T14:35:29.760Z,5.90
2022-08-27T14:38:02.535Z,6.80
2022-08-27T14:40:31.428Z,10.20
2022-08-27T14:43:01.341Z,7.13
2022-08-27T14:45:29.638Z,5.97
2022-08-27T14:48:02.198Z,6.88
2022-08-27T14:50:30.845Z,7.53
2022-08-27T14:53:00.869Z,6.15
2022-08-27T14:55:30.918Z,9.50
2022-08-27T15:00:30.441Z,9.57
2022-08-27T15:02:58.982Z,8.65
2022-08-27T15:05:28.071Z,7.13
2022-08-27T15:07:58.150Z,7.43
2022-08-27T15:10:28.278Z,6.93
2022-08-27T15:12:56.914Z,7.85
2022-08-27T15:15:25.555Z,6.70
2022-08-27T15:17:53.758Z,9.95
2022-08-27T15:20:21.899Z,8.68
2022-08-27T15:22:53.190Z,6.97
2022-08-27T15:25:22.384Z,8.02
2022-08-27T15:27:51.989Z,7.10
2022-08-27T15:30:27.689Z,8.02
2022-08-27T15:32:56.649Z,10.68
2022-08-27T15:35:28.427Z,8.25
2022-08-27T15:37:59.258Z,8.10
2022-08-27T15:40:30.034Z,7.13
2022-08-27T15:43:03.761Z,10.02
2022-08-27T15:45:33.513Z,10.20
2022-08-27T15:48:02.411Z,6.40
2022-08-27T15:50:31.916Z,7.63
2022-08-27T15:53:02.711Z,8.25
2022-08-27T15:55:33.565Z,8.45
2022-08-27T15:58:03.505Z,6.80
2022-08-27T16:00:34.417Z,6.85
2022-08-27T16:03:04.721Z,9.40
2022-08-27T16:05:35.064Z,8.07
2022-08-27T16:08:03.837Z,6.82
2022-08-27T16:10:32.405Z,7.05
2022-08-27T16:13:00.479Z,8.77
2022-08-27T16:15:30.669Z,8.30
2022-08-27T16:20:28.731Z,7.72
2022-08-27T16:22:56.968Z,9.75
2022-08-27T16:25:25.349Z,9.30
2022-08-27T16:27:53.853Z,8.70
2022-08-27T16:30:23.030Z,4.68
2022-08-27T16:32:53.247Z,7.45
2022-08-27T16:37:49.640Z,4.90
2022-08-27T16:40:18.193Z,8.27
2022-08-27T16:42:49.939Z,7.15
2022-08-27T16:45:21.856Z,10.05
2022-08-27T16:48:08.241Z,6.43
2022-08-27T16:50:37.985Z,9.18
2022-08-27T16:53:09.205Z,9.48
2022-08-27T16:55:39.106Z,7.80
2022-08-27T16:58:10.423Z,5.50
2022-08-27T17:00:39.411Z,11.10
2022-08-27T17:03:09.230Z,8.75
2022-08-27T17:05:38.807Z,7.22
2022-08-27T17:08:06.978Z,7.43
2022-08-27T17:10:46.382Z,11.50
2022-08-27T17:13:16.675Z,8.80
2022-08-27T17:15:48.729Z,6.72
2022-08-27T17:18:20.976Z,7.68
2022-08-27T17:23:23.050Z,10.90
2022-08-27T17:25:51.131Z,6.70
2022-08-27T17:28:19.665Z,8.32
2022-08-27T17:30:48.088Z,7.22
2022-08-27T17:33:21.416Z,5.00
2022-08-27T17:35:50.762Z,7.20
2022-08-27T17:38:18.833Z,6.03
2022-08-27T17:40:47.385Z,10.68
2022-08-27T17:43:21.273Z,7.93
2022-08-27T17:45:50.058Z,11.57
2022-08-27T17:48:22.681Z,9.30
2022-08-27T17:50:55.536Z,5.38
2022-08-27T17:53:23.952Z,7.53
2022-08-27T17:55:52.190Z,8.15
2022-08-27T17:58:20.666Z,6.65
2022-08-27T18:00:48.817Z,6.05
2022-08-27T18:03:21.118Z,7.75
2022-08-27T18:05:50.102Z,8.73
2022-08-27T18:08:20.585Z,7.68
2022-08-27T18:10:49.680Z,11.23
2022-08-27T18:13:18.930Z,5.80
2022-08-27T18:15:48.516Z,8.40
2022-08-27T18:18:16.817Z,7.97
2022-08-27T18:20:45.193Z,7.07
2022-08-27T18:23:13.740Z,5.28
2022-08-27T18:25:45.541Z,7.18
2022-08-27T18:28:15.080Z,8.52
2022-08-27T18:30:44.742Z,8.85
2022-08-27T18:33:13.758Z,7.50
2022-08-27T18:35:42.846Z,4.55
2022-08-27T18:38:10.987Z,11.23
2022-08-27T18:40:41.937Z,7.18
2022-08-27T18:43:12.024Z,7.13
2022-08-27T18:45:40.174Z,7.47
2022-08-27T18:48:14.672Z,8.45
2022-08-27T18:50:46.424Z,9.13
2022-08-27T18:53:16.721Z,7.53
2022-08-27T18:55:45.485Z,7.18
2022-08-27T18:58:15.291Z,12.18
2022-08-27T19:00:46.463Z,8.02
2022-08-27T19:03:18.861Z,9.07
2022-08-27T19:05:48.361Z,5.25
2022-08-27T19:08:23.316Z,7.70
2022-08-27T19:10:51.461Z,7.75
2022-08-27T19:13:21.205Z,8.73
2022-08-27T19:15:57.677Z,7.55
2022-08-27T19:18:28.666Z,6.63
2022-08-27T19:20:57.296Z,5.85
2022-08-27T19:23:26.371Z,10.93
2022-08-27T19:25:55.246Z,10.50
2022-08-27T19:28:29.613Z,9.05
2022-08-27T19:30:58.907Z,6.38
2022-08-27T19:33:26.961Z,11.95
2022-08-27T19:35:55.023Z,7.22
2022-08-27T19:38:24.734Z,5.53
2022-08-27T19:40:52.957Z,8.75
2022-08-27T19:43:21.000Z,5.25
2022-08-27T19:45:50.784Z,6.82
2022-08-27T19:48:18.922Z,6.18
2022-08-27T19:50:46.912Z,5.75
2022-08-27T19:53:18.943Z,5.65
2022-08-27T19:55:47.261Z,6.68
2022-08-27T19:58:16.654Z,5.18
2022-08-27T20:00:46.370Z,5.05
2022-08-27T20:03:15.909Z,5.90
2022-08-27T20:05:44.563Z,5.93
2022-08-27T20:08:13.100Z,5.68
2022-08-27T20:10:41.773Z,8.52
2022-08-27T20:13:12.425Z,8.07
2022-08-27T20:15:40.729Z,6.45
2022-08-27T20:18:09.377Z,4.45
2022-08-27T20:20:39.668Z,4.28
2022-08-27T20:23:08.407Z,9.02
2022-08-27T20:25:37.612Z,7.97
2022-08-27T20:28:37.353Z,7.13
2022-08-27T20:30:57.452Z,6.22
2022-08-27T20:33:27.221Z,4.80
2022-08-27T20:35:57.822Z,4.80
2022-08-27T20:38:26.204Z,3.42
2022-08-27T20:40:54.279Z,5.10
2022-08-27T20:43:22.494Z,6.15
2022-08-27T20:45:50.835Z,4.85
2022-08-27T20:48:19.051Z,5.07
2022-08-27T20:50:47.730Z,6.50
2022-08-27T20:53:17.197Z,5.45
2022-08-27T20:55:45.657Z,5.45
2022-08-27T20:58:31.385Z,5.90
2022-08-27T21:01:00.380Z,6.50
2022-08-27T21:03:28.706Z,6.90
2022-08-27T21:05:56.744Z,7.10
2022-08-27T21:08:26.193Z,8.80
2022-08-27T21:10:57.821Z,5.72
2022-08-27T21:13:28.005Z,6.53
2022-08-27T21:15:56.466Z,7.63
2022-08-27T21:18:29.952Z,10.82
2022-08-27T21:20:58.656Z,7.85
2022-08-27T21:23:29.160Z,6.82
2022-08-27T21:25:57.424Z,9.15
2022-08-27T21:28:25.551Z,8.85
2022-08-27T21:30:53.580Z,8.60
2022-08-27T21:33:21.852Z,9.82
2022-08-27T21:35:49.899Z,8.32
2022-08-27T21:38:18.041Z,11.98
2022-08-27T21:40:47.608Z,8.25
2022-08-27T21:43:15.689Z,8.32
2022-08-27T21:45:43.950Z,7.57
2022-08-27T21:48:12.661Z,7.55
2022-08-27T21:50:40.700Z,8.00
2022-08-27T21:53:08.719Z,6.93
2022-08-27T21:55:36.699Z,7.55
2022-08-27T21:58:06.216Z,7.65
2022-08-27T22:00:42.099Z,8.45
2022-08-27T22:03:13.868Z,8.05
2022-08-27T22:05:43.590Z,11.07
2022-08-27T22:08:13.468Z,9.13
2022-08-27T22:10:45.659Z,7.47
2022-08-27T22:13:16.481Z,10.88
2022-08-27T22:15:44.673Z,10.43
2022-08-27T22:18:13.674Z,8.52
2022-08-27T22:20:42.136Z,10.20
2022-08-27T22:23:13.158Z,8.80
2022-08-27T22:25:42.634Z,7.80
2022-08-27T22:28:12.065Z,9.77
2022-08-27T22:30:42.408Z,8.75
2022-08-27T22:35:38.885Z,8.98
2022-08-27T22:38:07.460Z,11.48
2022-08-27T22:43:05.810Z,10.60
2022-08-27T22:45:34.600Z,10.68
2022-08-27T22:48:04.819Z,9.55
2022-08-27T22:53:00.661Z,7.82
2022-08-27T22:55:30.559Z,10.32
2022-08-27T22:57:58.574Z,14.90
2022-08-27T23:00:29.125Z,10.00
2022-08-27T23:02:57.925Z,9.50
2022-08-27T23:05:28.488Z,9.85
2022-08-27T23:08:09.841Z,10.43
2022-08-27T23:10:38.571Z,10.45
2022-08-27T23:13:07.983Z,11.77
2022-08-27T23:15:36.011Z,14.87
2022-08-27T23:18:04.119Z,8.30
2022-08-27T23:20:34.215Z,9.73
2022-08-27T23:23:02.717Z,13.93
2022-08-27T23:25:49.005Z,10.18
2022-08-27T23:28:17.633Z,8.45
2022-08-27T23:30:47.005Z,11.27
2022-08-27T23:33:15.952Z,8.20
2022-08-27T23:35:48.194Z,10.80
2022-08-27T23:38:17.143Z,13.10
2022-08-27T23:40:46.243Z,10.98
2022-08-27T23:43:14.493Z,9.60
2022-08-27T23:45:43.239Z,10.45
2022-08-27T23:48:12.151Z,11.02
2022-08-27T23:50:40.863Z,10.00
2022-08-27T23:53:10.977Z,11.77
2022-08-27T23:55:40.400Z,12.18
2022-08-27T23:58:09.343Z,8.48
